Time;durP1;ratioP1;P1;durP2;ratioP2;P2;SDS_P1;SDS_P2;PMS_P1;PMS_P2;Temp;Humidity;BMP_temperature;BMP_pressure;BME280_temperature;BME280_humidity;BME280_pressure;Samples;Min_cycle;Max_cycle;Signal;HPM_P1;HPM_P2
2022/11/06 00:00:36;;;;;;;8.40;6.63;;;10.80;99.90;;;;;;5027641;28;20222;-85
2022/11/06 00:03:03;;;;;;;9.70;7.45;;;10.80;99.90;;;;;;5037617;28;20219;-86
2022/11/06 00:08:27;;;;;;;9.13;6.90;;;10.90;99.90;;;;;;5023305;28;20218;-87
2022/11/06 00:10:56;;;;;;;9.55;6.20;;;10.90;99.90;;;;;;5027259;28;20233;-86
2022/11/06 00:13:23;;;;;;;8.82;7.93;;;10.90;99.90;;;;;;5028909;28;20228;-85
2022/11/06 00:15:51;;;;;;;7.82;5.90;;;11.00;99.90;;;;;;5029822;28;20276;-86
2022/11/06 00:18:19;;;;;;;13.57;6.15;;;11.00;99.90;;;;;;5027370;28;20268;-86
2022/11/06 00:20:46;;;;;;;8.60;6.65;;;11.10;99.90;;;;;;5029627;28;20266;-86
2022/11/06 00:23:12;;;;;;;13.23;6.20;;;11.00;99.90;;;;;;5030647;28;20250;-85
2022/11/06 00:25:41;;;;;;;6.43;5.47;;;11.10;99.90;;;;;;5029254;28;20210;-85
2022/11/06 00:28:08;;;;;;;10.60;5.60;;;11.10;99.90;;;;;;5031913;28;20249;-84
2022/11/06 00:30:35;;;;;;;10.07;6.28;;;11.00;99.90;;;;;;5037817;28;20215;-85
2022/11/06 00:33:04;;;;;;;8.77;5.90;;;11.00;99.90;;;;;;5028849;28;20286;-86
2022/11/06 00:35:33;;;;;;;10.35;6.75;;;11.00;99.90;;;;;;5035517;28;20207;-86
2022/11/06 00:40:41;;;;;;;10.55;6.72;;;10.80;99.90;;;;;;5030843;28;20206;-85
2022/11/06 00:43:08;;;;;;;14.43;6.13;;;10.80;99.90;;;;;;5030042;28;20227;-84
2022/11/06 00:45:34;;;;;;;13.30;5.90;;;10.80;99.90;;;;;;5032196;28;20223;-85
2022/11/06 00:48:01;;;;;;;6.45;5.57;;;10.80;99.90;;;;;;5035835;28;20310;-85
2022/11/06 00:50:30;;;;;;;9.32;5.65;;;10.70;99.90;;;;;;5028966;28;20242;-85
2022/11/06 00:52:57;;;;;;;12.68;6.68;;;10.70;99.90;;;;;;5025193;28;20222;-84
2022/11/06 00:55:23;;;;;;;11.00;7.32;;;10.80;99.90;;;;;;5029429;28;20214;-85
2022/11/06 00:57:51;;;;;;;9.10;6.25;;;11.00;99.90;;;;;;5026303;28;20239;-86
2022/11/06 01:00:19;;;;;;;10.85;6.10;;;10.80;99.90;;;;;;5027768;28;20197;-84
2022/11/06 01:02:46;;;;;;;8.70;6.55;;;10.80;99.90;;;;;;5021634;28;20591;-85
2022/11/06 01:05:13;;;;;;;8.68;6.65;;;10.70;99.90;;;;;;5029296;28;20261;-83
2022/11/06 01:07:42;;;;;;;13.43;5.93;;;10.70;99.90;;;;;;5035452;28;20259;-85
2022/11/06 01:10:09;;;;;;;8.63;6.20;;;10.80;99.90;;;;;;5025087;28;20212;-85
2022/11/06 01:12:36;;;;;;;8.60;6.90;;;10.80;99.90;;;;;;5030045;28;20295;-85
2022/11/06 01:15:03;;;;;;;7.65;5.25;;;10.70;99.90;;;;;;5028974;28;20937;-85
2022/11/06 01:17:30;;;;;;;7.07;5.88;;;10.70;99.90;;;;;;5030234;28;20219;-84
2022/11/06 01:19:57;;;;;;;10.88;7.10;;;10.80;99.90;;;;;;5030374;28;20683;-85
2022/11/06 01:22:24;;;;;;;11.70;6.95;;;10.60;99.90;;;;;;5026454;28;20219;-86
2022/11/06 01:24:52;;;;;;;12.75;6.93;;;10.60;99.90;;;;;;5028154;28;20257;-85
2022/11/06 01:27:19;;;;;;;8.85;6.82;;;10.60;99.90;;;;;;5027889;28;20231;-84
2022/11/06 01:29:46;;;;;;;9.70;6.57;;;10.60;99.90;;;;;;5034928;28;20226;-85
2022/11/06 01:32:13;;;;;;;10.43;6.95;;;10.70;99.90;;;;;;5026784;28;20199;-85
2022/11/06 01:34:40;;;;;;;7.25;6.40;;;10.70;99.90;;;;;;5024521;28;20313;-85
2022/11/06 01:37:07;;;;;;;11.38;6.10;;;10.70;99.90;;;;;;5028240;28;20211;-84
2022/11/06 01:39:34;;;;;;;9.32;6.93;;;10.70;99.90;;;;;;5028874;28;20211;-84
2022/11/06 01:42:03;;;;;;;9.05;6.85;;;10.50;99.90;;;;;;5032488;28;20212;-86
2022/11/06 01:45:16;;;;;;;7.30;6.00;;;10.70;99.90;;;;;;5034464;28;20226;-86
2022/11/06 01:47:44;;;;;;;11.00;7.25;;;10.70;99.90;;;;;;5023560;28;20221;-85
2022/11/06 01:50:12;;;;;;;8.82;6.60;;;10.70;99.90;;;;;;5027928;28;20211;-86
2022/11/06 01:52:40;;;;;;;9.30;6.30;;;10.70;99.90;;;;;;5030691;28;20228;-85
2022/11/06 01:55:10;;;;;;;7.60;5.93;;;10.80;99.90;;;;;;5041779;28;20199;-85
2022/11/06 01:57:39;;;;;;;10.60;6.32;;;10.80;99.90;;;;;;5058663;28;21090;-85
2022/11/06 02:00:09;;;;;;;10.60;6.85;;;10.80;99.90;;;;;;5040823;28;20231;-86
2022/11/06 02:02:37;;;;;;;10.80;7.43;;;10.90;99.90;;;;;;5039616;28;20211;-85
2022/11/06 02:05:05;;;;;;;11.18;6.28;;;10.80;99.90;;;;;;5039400;28;20199;-85
2022/11/06 02:07:33;;;;;;;13.68;7.00;;;10.80;99.90;;;;;;5045931;28;20190;-85
2022/11/06 02:10:00;;;;;;;13.85;6.85;;;10.90;99.90;;;;;;5045660;28;20221;-85
2022/11/06 02:12:39;;;;;;;8.80;6.38;;;10.80;99.90;;;;;;5039658;28;20201;-85
2022/11/06 02:15:16;;;;;;;7.78;6.53;;;10.80;99.90;;;;;;5039741;28;20206;-84
2022/11/06 02:17:58;;;;;;;14.65;6.90;;;10.80;99.90;;;;;;5022524;28;20201;-85
2022/11/06 02:20:32;;;;;;;11.10;5.95;;;10.80;99.90;;;;;;5028730;28;20192;-86
2022/11/06 02:23:11;;;;;;;11.02;7.60;;;10.80;99.90;;;;;;5039413;28;20235;-84
2022/11/06 02:25:48;;;;;;;10.63;6.80;;;10.90;99.90;;;;;;5039923;28;20191;-84
2022/11/06 02:28:23;;;;;;;7.43;5.90;;;10.80;99.90;;;;;;5039529;28;20202;-84
2022/11/06 02:30:52;;;;;;;11.38;6.28;;;10.90;99.90;;;;;;5039351;28;20218;-86
2022/11/06 02:33:26;;;;;;;9.32;6.85;;;10.80;99.90;;;;;;5039113;28;20251;-82
2022/11/06 02:36:00;;;;;;;8.50;6.90;;;10.70;99.90;;;;;;5039394;28;20182;-85
2022/11/06 02:38:31;;;;;;;9.52;6.43;;;10.80;99.90;;;;;;5037914;28;20218;-84
2022/11/06 02:41:02;;;;;;;12.07;6.88;;;10.80;99.90;;;;;;5039499;28;20273;-85
2022/11/06 02:43:32;;;;;;;8.80;5.93;;;10.80;99.90;;;;;;5037986;28;20249;-84
2022/11/06 02:46:03;;;;;;;7.47;6.10;;;10.80;99.90;;;;;;5036970;28;20255;-85
2022/11/06 02:48:37;;;;;;;11.98;6.63;;;10.70;99.90;;;;;;5038213;28;20236;-85
2022/11/06 02:51:05;;;;;;;8.50;6.00;;;10.80;99.90;;;;;;5035456;28;20264;-87
2022/11/06 02:53:33;;;;;;;7.63;5.47;;;10.80;99.90;;;;;;5035452;28;20222;-84
2022/11/06 02:56:05;;;;;;;13.93;6.90;;;10.80;99.90;;;;;;5035235;28;20262;-84
2022/11/06 02:58:38;;;;;;;9.10;5.63;;;10.80;99.90;;;;;;5033680;28;20231;-85
2022/11/06 03:01:12;;;;;;;18.20;6.20;;;10.90;99.90;;;;;;5023132;28;20215;-86
2022/11/06 03:03:44;;;;;;;7.90;5.40;;;10.80;99.90;;;;;;5027625;28;20231;-84
2022/11/06 03:06:16;;;;;;;11.45;6.88;;;10.80;99.90;;;;;;5033574;28;20207;-84
2022/11/06 03:08:48;;;;;;;12.18;6.40;;;10.80;99.90;;;;;;5042732;28;20312;-85
2022/11/06 03:11:21;;;;;;;10.98;6.10;;;10.80;99.90;;;;;;5028993;28;20293;-85
2022/11/06 03:13:56;;;;;;;9.75;5.90;;;10.80;99.90;;;;;;5033628;28;20274;-85
2022/11/06 03:16:29;;;;;;;9.80;5.45;;;10.80;99.90;;;;;;5037826;28;20185;-85
2022/11/06 03:19:03;;;;;;;8.68;5.95;;;10.70;99.90;;;;;;5032130;28;20181;-84
2022/11/06 03:21:36;;;;;;;11.60;6.65;;;10.80;99.90;;;;;;5038249;28;20185;-84
2022/11/06 03:24:09;;;;;;;7.05;5.53;;;10.90;99.90;;;;;;5039876;28;20229;-83
2022/11/06 03:26:41;;;;;;;5.97;5.30;;;10.80;99.90;;;;;;5034537;28;20212;-84
2022/11/06 03:29:14;;;;;;;11.15;6.10;;;10.70;99.90;;;;;;5038557;28;20219;-83
2022/11/06 03:31:49;;;;;;;8.00;6.70;;;10.70;99.90;;;;;;5038658;28;20191;-83
2022/11/06 03:34:24;;;;;;;8.20;5.35;;;10.80;99.90;;;;;;5038484;28;20235;-84
2022/11/06 03:36:57;;;;;;;10.63;5.50;;;10.70;99.90;;;;;;5024983;28;20225;-85
2022/11/06 03:39:28;;;;;;;7.03;4.82;;;10.70;99.90;;;;;;5018523;28;20240;-86
2022/11/06 03:42:01;;;;;;;11.05;6.03;;;10.70;99.90;;;;;;5029711;28;20207;-86
2022/11/06 03:44:32;;;;;;;7.95;6.03;;;10.70;99.90;;;;;;5028095;28;20286;-85
2022/11/06 03:47:04;;;;;;;13.45;6.68;;;10.80;99.90;;;;;;5027447;28;20211;-84
2022/11/06 03:49:34;;;;;;;9.27;5.40;;;10.70;99.90;;;;;;5034057;28;20225;-86
2022/11/06 03:52:05;;;;;;;12.35;5.78;;;10.50;99.90;;;;;;5031220;28;20747;-85
2022/11/06 03:54:38;;;;;;;10.25;6.20;;;10.40;99.90;;;;;;5040456;28;20234;-86
2022/11/06 03:57:09;;;;;;;10.98;6.03;;;10.50;99.90;;;;;;5025819;28;20233;-86
2022/11/06 03:59:42;;;;;;;7.68;5.57;;;10.40;99.90;;;;;;5030435;28;20356;-84
2022/11/06 04:02:12;;;;;;;8.60;7.07;;;10.30;99.90;;;;;;5031294;28;20819;-84
2022/11/06 04:04:55;;;;;;;8.77;5.50;;;10.30;99.90;;;;;;5029686;28;20225;-84
2022/11/06 04:07:24;;;;;;;12.05;7.07;;;10.30;99.90;;;;;;5019847;28;20257;-86
2022/11/06 04:15:30;;;;;;;6.00;5.40;;;10.30;99.90;;;;;;5029930;28;20194;-84
2022/11/06 04:17:57;;;;;;;8.40;5.75;;;10.30;99.90;;;;;;5029215;28;20194;-85
2022/11/06 04:23:19;;;;;;;14.63;6.30;;;10.20;99.90;;;;;;5028653;28;20336;-85
2022/11/06 04:28:52;;;;;;;8.38;5.13;;;10.10;99.90;;;;;;5027000;28;20207;-86
2022/11/06 04:31:26;;;;;;;8.70;5.75;;;10.20;99.90;;;;;;5030570;28;20207;-86
2022/11/06 04:34:01;;;;;;;9.10;5.25;;;10.20;99.90;;;;;;5030633;28;20230;-85
2022/11/06 04:36:40;;;;;;;6.82;6.00;;;10.20;99.90;;;;;;5030263;28;20246;-85
2022/11/06 04:39:13;;;;;;;8.35;5.35;;;10.20;99.90;;;;;;5022238;28;20227;-86
2022/11/06 04:41:45;;;;;;;5.72;5.00;;;10.20;99.90;;;;;;5028201;28;20690;-85
2022/11/06 04:44:19;;;;;;;8.02;6.07;;;10.20;99.90;;;;;;5021913;28;20292;-85
2022/11/06 04:46:52;;;;;;;8.90;5.97;;;10.20;99.90;;;;;;5029187;28;20619;-85
2022/11/06 04:49:21;;;;;;;8.05;5.32;;;10.30;99.90;;;;;;5029156;28;20218;-86
2022/11/06 04:51:48;;;;;;;7.43;4.90;;;10.30;99.90;;;;;;5027561;28;20199;-85
2022/11/06 04:54:16;;;;;;;8.57;5.30;;;10.30;99.90;;;;;;5029678;28;20226;-85
2022/11/06 04:56:43;;;;;;;12.02;5.90;;;10.40;99.90;;;;;;5029792;28;20234;-84
2022/11/06 04:59:14;;;;;;;9.25;5.15;;;10.30;99.90;;;;;;5030098;28;20219;-85
2022/11/06 05:01:42;;;;;;;12.18;5.85;;;10.40;99.90;;;;;;5028680;28;20232;-85
2022/11/06 05:04:11;;;;;;;8.02;4.68;;;10.40;99.90;;;;;;5028163;28;20224;-85
2022/11/06 05:06:38;;;;;;;10.95;5.85;;;10.40;99.90;;;;;;5028596;28;20238;-85
2022/11/06 05:09:05;;;;;;;10.75;6.20;;;10.30;99.90;;;;;;5027258;28;20737;-85
2022/11/06 05:11:32;;;;;;;6.35;5.47;;;10.40;99.90;;;;;;5027146;28;20290;-86
2022/11/06 05:13:59;;;;;;;8.07;4.85;;;10.40;99.90;;;;;;5018405;28;20231;-86
2022/11/06 05:16:26;;;;;;;13.85;4.80;;;10.50;99.90;;;;;;5027244;28;20669;-85
2022/11/06 05:18:52;;;;;;;11.13;5.25;;;10.30;99.90;;;;;;5028820;28;20216;-84
2022/11/06 05:24:07;;;;;;;11.98;6.03;;;10.40;99.90;;;;;;5030935;28;20296;-83
2022/11/06 05:26:34;;;;;;;7.20;5.10;;;10.40;99.90;;;;;;5040136;28;20197;-82
2022/11/06 05:29:01;;;;;;;9.38;5.10;;;10.40;99.90;;;;;;5039497;28;20217;-81
2022/11/06 05:31:27;;;;;;;8.57;5.05;;;10.40;99.90;;;;;;5034115;28;20206;-82
2022/11/06 05:33:54;;;;;;;6.28;4.78;;;10.40;99.90;;;;;;5029863;28;20256;-82
2022/11/06 05:36:23;;;;;;;7.65;5.68;;;10.30;99.90;;;;;;5031700;28;20220;-82
2022/11/06 05:38:50;;;;;;;9.45;4.78;;;10.30;99.90;;;;;;5033341;28;20275;-81
2022/11/06 05:41:17;;;;;;;5.80;4.72;;;10.30;99.90;;;;;;5030902;28;20239;-83
2022/11/06 05:43:44;;;;;;;5.20;4.35;;;10.30;99.90;;;;;;5034657;28;20225;-84
2022/11/06 05:46:11;;;;;;;10.65;4.47;;;10.40;99.90;;;;;;5030416;28;20290;-82
2022/11/06 05:48:38;;;;;;;8.30;4.32;;;10.50;99.90;;;;;;5030603;28;20271;-83
2022/11/06 05:51:07;;;;;;;11.00;4.68;;;10.50;99.90;;;;;;5033274;28;20223;-82
2022/11/06 05:53:36;;;;;;;7.13;4.55;;;10.50;99.90;;;;;;5023419;28;20258;-82
2022/11/06 05:56:04;;;;;;;6.20;5.10;;;10.50;99.90;;;;;;5025978;28;20278;-82
2022/11/06 05:58:31;;;;;;;5.70;4.20;;;10.50;99.90;;;;;;5019796;28;20216;-83
2022/11/06 06:00:58;;;;;;;10.43;4.88;;;10.50;99.90;;;;;;5026071;28;20280;-84
2022/11/06 06:03:26;;;;;;;9.18;4.47;;;10.40;99.90;;;;;;5025551;28;20309;-83
2022/11/06 06:05:53;;;;;;;8.05;5.88;;;10.50;99.90;;;;;;5028494;28;20270;-84
2022/11/06 06:08:20;;;;;;;12.80;4.95;;;10.50;99.90;;;;;;5020778;28;20237;-83
2022/11/06 06:10:49;;;;;;;10.85;4.20;;;10.40;99.90;;;;;;5019520;28;20228;-83
2022/11/06 06:13:16;;;;;;;13.75;5.18;;;10.40;99.90;;;;;;5025272;28;20309;-83
2022/11/06 06:15:43;;;;;;;7.50;3.95;;;10.50;99.90;;;;;;5029738;28;20210;-84
2022/11/06 06:18:11;;;;;;;5.95;4.32;;;10.40;99.90;;;;;;5026322;28;20219;-83
2022/11/06 06:20:38;;;;;;;8.10;4.40;;;10.50;99.90;;;;;;5025954;28;20225;-83
2022/11/06 06:23:06;;;;;;;8.95;4.28;;;10.50;99.90;;;;;;5023465;28;20312;-82
2022/11/06 06:25:33;;;;;;;15.77;5.63;;;10.60;99.90;;;;;;5037613;28;20268;-82
2022/11/06 06:28:01;;;;;;;6.30;4.85;;;10.60;99.90;;;;;;5034954;28;20298;-82
2022/11/06 06:30:28;;;;;;;10.82;4.35;;;10.50;99.90;;;;;;5030216;28;20255;-83
2022/11/06 06:32:55;;;;;;;6.20;4.85;;;10.60;99.90;;;;;;5034778;28;20294;-82
2022/11/06 06:35:22;;;;;;;4.63;4.00;;;10.50;99.90;;;;;;5037005;28;20223;-83
2022/11/06 06:37:53;;;;;;;9.00;3.53;;;10.60;99.90;;;;;;5027137;28;20296;-83
2022/11/06 06:40:20;;;;;;;8.77;3.92;;;10.50;99.90;;;;;;5024728;28;20270;-83
2022/11/06 06:42:47;;;;;;;8.90;4.20;;;10.70;99.90;;;;;;5026458;28;20227;-82
2022/11/06 06:45:16;;;;;;;8.23;4.40;;;10.60;99.90;;;;;;5028820;28;20227;-83
2022/11/06 06:47:43;;;;;;;5.45;3.38;;;10.60;99.90;;;;;;5029693;28;20234;-82
2022/11/06 06:50:10;;;;;;;6.85;4.18;;;10.50;99.90;;;;;;5035566;28;20266;-83
2022/11/06 06:52:37;;;;;;;7.53;3.67;;;10.50;99.90;;;;;;5034704;28;20354;-83
2022/11/06 06:55:04;;;;;;;9.13;4.32;;;10.50;99.90;;;;;;5037180;28;20218;-83
2022/11/06 06:57:31;;;;;;;10.80;4.68;;;10.50;99.90;;;;;;5033931;28;20231;-83
2022/11/06 06:59:58;;;;;;;11.27;4.00;;;10.50;99.90;;;;;;5038342;28;20187;-83
2022/11/06 07:02:27;;;;;;;8.27;4.55;;;10.50;99.90;;;;;;5038387;28;20185;-83
2022/11/06 07:04:56;;;;;;;9.77;4.10;;;10.60;99.90;;;;;;5038178;28;20221;-82
2022/11/06 07:07:22;;;;;;;5.00;3.90;;;10.60;99.90;;;;;;5038631;28;20194;-84
2022/11/06 07:09:51;;;;;;;6.30;3.60;;;10.60;99.90;;;;;;5038422;28;20217;-83
2022/11/06 07:12:17;;;;;;;5.38;4.00;;;10.70;99.90;;;;;;5038537;28;20206;-83
2022/11/06 07:14:45;;;;;;;4.68;3.60;;;10.90;99.90;;;;;;5038343;28;20189;-83
2022/11/06 07:17:12;;;;;;;8.50;3.42;;;10.90;99.90;;;;;;5038543;28;20241;-83
2022/11/06 07:19:40;;;;;;;7.13;2.88;;;10.90;99.90;;;;;;5037904;28;20238;-82
2022/11/06 07:22:07;;;;;;;6.43;4.03;;;10.80;99.90;;;;;;5038362;28;20221;-80
2022/11/06 07:24:33;;;;;;;4.97;3.60;;;10.80;99.90;;;;;;5032303;28;20210;-81
2022/11/06 07:27:00;;;;;;;5.10;3.90;;;10.80;99.90;;;;;;5036820;28;20250;-82
2022/11/06 07:29:27;;;;;;;6.10;3.80;;;10.70;99.90;;;;;;5021580;28;20229;-83
2022/11/06 07:31:54;;;;;;;9.98;4.22;;;10.80;99.90;;;;;;5027415;28;20276;-79
2022/11/06 07:34:22;;;;;;;7.45;3.47;;;10.80;99.90;;;;;;5026251;28;20307;-80
2022/11/06 07:36:50;;;;;;;7.93;4.60;;;10.80;99.90;;;;;;5028680;28;20232;-81
2022/11/06 07:39:17;;;;;;;4.45;3.78;;;10.80;99.90;;;;;;5022445;28;20385;-79
2022/11/06 07:41:44;;;;;;;5.93;3.15;;;10.80;99.90;;;;;;5022753;28;20214;-81
2022/11/06 07:44:11;;;;;;;6.68;3.78;;;10.80;99.90;;;;;;5021414;28;20240;-80
2022/11/06 07:46:38;;;;;;;6.43;3.70;;;10.70;99.90;;;;;;5021629;28;20205;-81
2022/11/06 07:49:05;;;;;;;6.07;3.30;;;10.80;99.90;;;;;;5023668;28;20289;-84
2022/11/06 07:51:32;;;;;;;5.90;3.75;;;10.80;99.90;;;;;;5034523;28;20218;-81
2022/11/06 07:54:00;;;;;;;5.05;3.00;;;10.90;99.90;;;;;;5022581;28;20354;-82
2022/11/06 07:56:27;;;;;;;4.30;3.33;;;10.90;99.90;;;;;;5021786;28;20212;-83
2022/11/06 07:58:54;;;;;;;8.70;3.17;;;10.90;99.90;;;;;;5023587;28;20559;-84
2022/11/06 08:01:21;;;;;;;4.25;2.55;;;11.00;99.90;;;;;;5028399;28;20203;-84
2022/11/06 08:03:48;;;;;;;6.70;4.50;;;11.20;99.90;;;;;;5033493;28;20286;-83
2022/11/06 08:06:15;;;;;;;6.40;4.30;;;11.00;99.90;;;;;;5020153;28;20223;-83
2022/11/06 08:08:42;;;;;;;4.65;3.17;;;11.20;99.90;;;;;;5026146;28;20210;-83
2022/11/06 08:11:11;;;;;;;5.25;4.63;;;11.30;99.90;;;;;;5026825;28;20223;-84
2022/11/06 08:14:01;;;;;;;8.05;3.60;;;11.30;99.90;;;;;;5034804;28;20242;-84
2022/11/06 08:16:29;;;;;;;5.20;4.15;;;11.40;99.90;;;;;;5024694;28;20582;-82
2022/11/06 08:18:56;;;;;;;7.05;3.15;;;11.50;99.90;;;;;;5025340;28;20211;-84
2022/11/06 08:21:23;;;;;;;4.93;3.08;;;11.70;99.90;;;;;;5027608;28;20231;-86
2022/11/06 08:23:50;;;;;;;10.15;3.42;;;11.70;99.90;;;;;;5030560;28;20243;-87
2022/11/06 08:26:18;;;;;;;7.53;3.28;;;11.90;99.90;;;;;;5024804;28;20223;-82
2022/11/06 08:28:45;;;;;;;6.80;3.55;;;11.80;99.90;;;;;;5016861;28;20204;-83
2022/11/06 08:31:12;;;;;;;6.88;2.83;;;11.80;99.90;;;;;;5021767;28;20224;-84
2022/11/06 08:33:40;;;;;;;6.63;2.88;;;11.80;99.90;;;;;;5024805;28;20319;-86
2022/11/06 08:36:09;;;;;;;4.90;3.10;;;11.60;99.90;;;;;;5024072;28;20212;-83
2022/11/06 08:38:40;;;;;;;6.72;3.20;;;11.70;99.90;;;;;;5024795;28;20226;-82
2022/11/06 08:41:07;;;;;;;5.57;3.10;;;11.70;99.90;;;;;;5026932;28;20215;-83
2022/11/06 08:43:37;;;;;;;7.90;3.75;;;11.70;99.90;;;;;;5023560;28;20292;-85
2022/11/06 08:46:05;;;;;;;4.50;3.10;;;12.00;99.90;;;;;;5028047;28;20254;-81
2022/11/06 08:48:32;;;;;;;7.85;4.13;;;11.90;99.90;;;;;;5027388;28;20211;-85
2022/11/06 08:50:58;;;;;;;5.30;2.85;;;12.10;99.90;;;;;;5027702;28;20251;-84
2022/11/06 08:53:25;;;;;;;4.28;2.85;;;12.20;99.90;;;;;;5026690;28;20322;-81
2022/11/06 08:55:52;;;;;;;12.10;3.20;;;12.30;99.90;;;;;;5026346;28;20298;-83
2022/11/06 08:58:20;;;;;;;11.05;3.03;;;12.40;99.90;;;;;;5027401;28;20246;-81
2022/11/06 09:00:48;;;;;;;5.72;2.53;;;12.50;99.90;;;;;;5024497;28;20521;-80
2022/11/06 09:03:17;;;;;;;6.82;3.33;;;12.40;99.90;;;;;;5023894;28;20254;-81
2022/11/06 09:05:48;;;;;;;8.38;3.63;;;12.70;99.90;;;;;;5021262;28;20250;-82
2022/11/06 09:08:15;;;;;;;6.63;2.80;;;12.70;99.90;;;;;;5022302;28;20224;-82
2022/11/06 09:10:43;;;;;;;4.07;3.13;;;12.50;99.90;;;;;;5021544;28;20263;-80
2022/11/06 09:13:11;;;;;;;5.53;3.47;;;12.60;99.90;;;;;;5021987;28;20238;-82
2022/11/06 09:15:40;;;;;;;7.32;2.60;;;12.90;99.90;;;;;;5020617;28;20207;-83
2022/11/06 09:18:08;;;;;;;6.75;3.05;;;13.00;99.90;;;;;;5036690;28;20228;-84
2022/11/06 09:20:35;;;;;;;4.75;2.72;;;12.90;99.90;;;;;;5036059;28;20205;-83
2022/11/06 09:23:03;;;;;;;8.73;2.35;;;13.10;99.90;;;;;;5031247;28;20217;-80
2022/11/06 09:25:31;;;;;;;5.00;3.05;;;13.00;99.90;;;;;;5024980;28;20240;-83
2022/11/06 09:27:58;;;;;;;4.22;2.35;;;13.70;99.90;;;;;;5020722;28;21251;-85
2022/11/06 09:30:27;;;;;;;4.38;2.17;;;14.70;99.90;;;;;;5023677;28;20229;-83
2022/11/06 09:32:57;;;;;;;4.76;2.56;;;15.40;99.90;;;;;;4982722;28;1142094;-83
2022/11/06 09:38:50;;;;;;;3.75;2.20;;;15.90;99.90;;;;;;4898092;28;20229;-66
2022/11/06 09:41:25;;;;;;;4.90;2.00;;;16.20;99.90;;;;;;4992640;28;20212;-68
2022/11/06 09:44:03;;;;;;;3.53;1.83;;;16.00;99.90;;;;;;4997593;28;20569;-67
2022/11/06 09:46:34;;;;;;;8.27;2.03;;;16.30;99.90;;;;;;4999144;28;20463;-69
2022/11/06 09:49:05;;;;;;;5.93;2.27;;;16.60;99.50;;;;;;5008446;28;20933;-67
2022/11/06 09:51:38;;;;;;;5.40;2.00;;;16.40;98.70;;;;;;5002523;28;20590;-66
2022/11/06 09:54:13;;;;;;;4.03;2.40;;;16.80;99.00;;;;;;5015534;28;20481;-66
2022/11/06 09:56:42;;;;;;;3.60;2.10;;;16.70;98.00;;;;;;5004908;28;20965;-67
2022/11/06 09:59:13;;;;;;;2.00;1.67;;;17.20;98.30;;;;;;5005700;28;21157;-70
2022/11/06 10:01:43;;;;;;;6.73;2.57;;;17.50;97.10;;;;;;5011946;28;20470;-66
2022/11/06 10:04:24;;;;;;;2.67;1.63;;;17.90;96.80;;;;;;5009399;28;20486;-67
2022/11/06 10:06:50;;;;;;;5.00;1.90;;;18.40;95.90;;;;;;5004496;28;20868;-66
2022/11/06 10:09:19;;;;;;;4.07;2.10;;;18.40;95.10;;;;;;5006068;28;20440;-64
2022/11/06 10:12:02;;;;;;;6.50;2.33;;;18.30;95.10;;;;;;5005806;28;20494;-65
2022/11/06 10:14:40;;;;;;;3.87;2.00;;;19.10;94.20;;;;;;5010160;28;20474;-66
2022/11/06 10:17:16;;;;;;;2.83;1.50;;;19.60;93.10;;;;;;5002143;28;20467;-66
2022/11/06 10:19:49;;;;;;;7.87;2.17;;;19.00;92.40;;;;;;5004642;28;20439;-66
2022/11/06 10:22:18;;;;;;;7.63;1.50;;;18.80;93.20;;;;;;5009141;28;20455;-67
2022/11/06 10:24:53;;;;;;;4.13;2.27;;;18.00;94.30;;;;;;5009279;28;20491;-67
2022/11/06 10:27:27;;;;;;;2.80;2.00;;;17.10;96.00;;;;;;5015397;28;21043;-65
2022/11/06 10:30:09;;;;;;;8.30;2.47;;;17.20;96.70;;;;;;5019951;28;20865;-67
2022/11/06 10:32:52;;;;;;;7.53;3.17;;;16.70;97.50;;;;;;5024070;28;20471;-64
2022/11/06 10:35:23;;;;;;;4.53;2.40;;;16.30;99.10;;;;;;5017692;28;20469;-64
2022/11/06 10:37:54;;;;;;;7.77;2.60;;;16.30;99.40;;;;;;5023285;28;20543;-66
2022/11/06 10:40:26;;;;;;;4.10;2.93;;;16.30;99.60;;;;;;5021922;28;20447;-65
2022/11/06 10:43:01;;;;;;;3.10;2.30;;;15.90;99.90;;;;;;5014286;28;20480;-66
2022/11/06 10:45:29;;;;;;;3.67;2.53;;;15.50;99.90;;;;;;5017453;28;20460;-64
2022/11/06 10:48:04;;;;;;;5.20;2.20;;;15.80;99.90;;;;;;5012058;28;20459;-63
2022/11/06 10:50:38;;;;;;;5.65;2.75;;;15.80;99.90;;;;;;5009694;28;20494;-65
2022/11/06 10:53:08;;;;;;;8.43;2.30;;;15.60;99.90;;;;;;4996007;28;20237;-66
2022/11/06 10:56:02;;;;;;;6.57;2.33;;;15.50;99.90;;;;;;5000738;28;20212;-64
2022/11/06 10:58:31;;;;;;;4.85;2.30;;;15.40;99.90;;;;;;5011248;28;20583;-65
2022/11/06 11:01:00;;;;;;;7.00;2.50;;;15.30;99.90;;;;;;5011017;28;20589;-65
2022/11/06 11:03:31;;;;;;;3.65;1.75;;;15.20;99.90;;;;;;5009998;28;20596;-64
2022/11/06 11:06:12;;;;;;;5.68;1.70;;;15.30;99.90;;;;;;5015874;28;20194;-86
2022/11/06 11:08:40;;;;;;;4.50;2.00;;;15.10;99.90;;;;;;5028000;28;20220;-81
2022/11/06 11:11:19;;;;;;;3.67;2.38;;;15.10;99.90;;;;;;5017286;28;20205;-80
2022/11/06 11:13:48;;;;;;;5.15;2.53;;;15.10;99.90;;;;;;5031468;28;20209;-81
2022/11/06 11:16:17;;;;;;;4.32;1.83;;;15.00;99.90;;;;;;5036612;28;20190;-81
2022/11/06 11:18:45;;;;;;;6.38;1.90;;;15.10;99.90;;;;;;5037272;28;20187;-80
2022/11/06 11:21:29;;;;;;;2.30;1.55;;;15.00;99.90;;;;;;5034820;28;20775;-85
2022/11/06 11:24:07;;;;;;;5.00;2.05;;;15.40;99.90;;;;;;5037129;28;20226;-84
2022/11/06 11:26:39;;;;;;;5.00;2.27;;;15.60;99.90;;;;;;5037469;28;20230;-84
2022/11/06 11:29:15;;;;;;;3.78;1.63;;;15.60;99.90;;;;;;5028870;28;20534;-85
2022/11/06 11:31:47;;;;;;;3.00;1.73;;;15.80;99.90;;;;;;5035517;28;20223;-86
2022/11/06 11:34:23;;;;;;;3.90;1.87;;;16.00;99.90;;;;;;5035381;28;20542;-86
2022/11/06 11:37:01;;;;;;;8.70;3.57;;;16.00;99.90;;;;;;5030527;28;20442;-85
2022/11/06 11:39:32;;;;;;;6.00;1.80;;;15.90;99.90;;;;;;5028980;28;20455;-85
2022/11/06 11:42:41;;;;;;;4.03;1.80;;;15.90;99.90;;;;;;5026935;28;20449;-86
2022/11/06 11:45:17;;;;;;;9.30;2.10;;;15.90;99.90;;;;;;5026523;28;20549;-85
2022/11/06 11:47:47;;;;;;;3.27;1.93;;;16.00;99.90;;;;;;5023036;28;20467;-87
2022/11/06 11:50:26;;;;;;;4.47;1.93;;;15.90;99.90;;;;;;5028484;28;20482;-85
2022/11/06 11:52:58;;;;;;;3.00;2.40;;;15.70;99.90;;;;;;5031497;28;20577;-85
2022/11/06 11:55:28;;;;;;;2.92;2.42;;;15.60;99.90;;;;;;5018506;28;20454;-83
2022/11/06 11:58:18;;;;;;;9.10;2.33;;;15.50;99.90;;;;;;5022737;28;20213;-83
2022/11/06 12:00:57;;;;;;;6.70;1.80;;;15.50;99.90;;;;;;5041521;28;20209;-82
2022/11/06 12:03:27;;;;;;;6.75;2.28;;;15.40;99.90;;;;;;5045206;28;20457;-81
2022/11/06 12:06:03;;;;;;;3.80;1.63;;;15.40;99.90;;;;;;5044769;28;20207;-81
2022/11/06 12:08:34;;;;;;;2.25;1.15;;;15.00;99.90;;;;;;5047276;28;20213;-85
2022/11/06 12:11:03;;;;;;;5.65;1.65;;;15.10;99.90;;;;;;5039405;28;20237;-63
2022/11/06 12:13:32;;;;;;;3.42;2.25;;;15.40;99.90;;;;;;5012390;28;20258;-65
2022/11/06 12:16:01;;;;;;;3.33;1.90;;;15.40;99.90;;;;;;5021309;28;20197;-64
2022/11/06 12:18:31;;;;;;;6.53;1.73;;;15.30;99.90;;;;;;5018835;28;20939;-65
2022/11/06 12:21:02;;;;;;;2.75;2.00;;;15.40;99.90;;;;;;5003132;28;20493;-67
2022/11/06 12:23:36;;;;;;;3.70;1.70;;;15.50;99.90;;;;;;5012370;28;20254;-66
2022/11/06 12:26:08;;;;;;;3.85;1.58;;;15.50;99.90;;;;;;5007711;28;20607;-63
2022/11/06 12:28:39;;;;;;;6.68;1.60;;;15.40;99.90;;;;;;5008234;28;20738;-64
2022/11/06 12:31:16;;;;;;;2.22;1.30;;;15.30;99.90;;;;;;5008858;28;20222;-65
2022/11/06 12:33:47;;;;;;;3.55;1.30;;;15.30;99.90;;;;;;5003572;28;20239;-69
2022/11/06 12:36:20;;;;;;;5.85;1.80;;;15.30;99.90;;;;;;5004330;28;20645;-65
2022/11/06 12:38:52;;;;;;;5.43;1.90;;;15.10;99.90;;;;;;5005360;28;20218;-68
2022/11/06 12:41:25;;;;;;;4.28;1.50;;;15.20;99.90;;;;;;5005177;28;20200;-65
2022/11/06 12:43:55;;;;;;;2.38;1.63;;;15.20;99.90;;;;;;5005466;28;20748;-65
2022/11/06 12:46:37;;;;;;;4.07;2.00;;;15.00;99.90;;;;;;5009560;28;20206;-64
2022/11/06 12:49:21;;;;;;;3.28;1.70;;;14.90;99.90;;;;;;5010638;28;20496;-65
2022/11/06 12:52:00;;;;;;;2.75;1.60;;;14.80;99.90;;;;;;5007418;28;20214;-66
2022/11/06 12:54:48;;;;;;;3.40;1.80;;;14.70;99.90;;;;;;5017731;28;20235;-64
2022/11/06 12:57:27;;;;;;;3.90;1.70;;;14.90;99.90;;;;;;5012047;28;20199;-64
2022/11/06 13:00:05;;;;;;;4.93;2.13;;;14.80;99.90;;;;;;5011472;28;20430;-66
2022/11/06 13:02:48;;;;;;;8.02;1.65;;;14.60;99.90;;;;;;5012325;28;20203;-66
2022/11/06 13:05:18;;;;;;;3.70;2.10;;;14.60;99.90;;;;;;5013082;28;20293;-65
2022/11/06 13:08:03;;;;;;;6.55;2.10;;;14.50;99.90;;;;;;5008803;28;20201;-64
2022/11/06 13:10:41;;;;;;;4.75;2.28;;;14.50;99.90;;;;;;5011242;28;20681;-65
2022/11/06 13:13:24;;;;;;;6.57;2.45;;;14.50;99.90;;;;;;5011416;28;20321;-66
2022/11/06 13:15:56;;;;;;;3.45;1.90;;;14.40;99.90;;;;;;5008732;28;20204;-65
2022/11/06 13:18:28;;;;;;;4.93;2.10;;;14.50;99.90;;;;;;5010428;28;20213;-65
2022/11/06 13:21:00;;;;;;;5.10;2.33;;;14.50;99.90;;;;;;5009730;28;20209;-65
2022/11/06 13:23:30;;;;;;;4.10;1.92;;;14.60;99.90;;;;;;5012153;28;20230;-65
2022/11/06 13:26:06;;;;;;;5.57;2.03;;;14.70;99.90;;;;;;5010652;28;20680;-67